createdAt,value
2022-09-15T00:00:24.000Z,997.5
2022-09-15T00:01:40.000Z,997.5
2022-09-15T00:02:55.000Z,997.5
2022-09-15T00:04:11.000Z,997.6
2022-09-15T00:05:27.000Z,997.5
2022-09-15T00:07:59.000Z,997.6
2022-09-15T00:09:15.000Z,997.6
2022-09-15T00:10:32.000Z,997.5
2022-09-15T00:11:48.000Z,997.5
2022-09-15T00:13:04.000Z,997.5
2022-09-15T00:14:20.000Z,997.5
2022-09-15T00:15:36.000Z,997.5
2022-09-15T00:16:53.000Z,997.5
2022-09-15T00:18:09.000Z,997.5
2022-09-15T00:19:25.000Z,997.5
2022-09-15T00:20:40.000Z,997.5
2022-09-15T00:21:56.000Z,997.5
2022-09-15T00:23:13.000Z,997.4
2022-09-15T00:24:29.000Z,997.5
2022-09-15T00:25:45.000Z,997.4
2022-09-15T00:27:01.000Z,997.4
2022-09-15T00:28:17.000Z,997.4
2022-09-15T00:29:34.000Z,997.4
2022-09-15T00:30:49.000Z,997.4
2022-09-15T00:32:04.000Z,997.5
2022-09-15T00:33:20.000Z,997.5
2022-09-15T00:34:36.000Z,997.5
2022-09-15T00:35:52.000Z,997.4
2022-09-15T00:37:07.000Z,997.4
2022-09-15T00:38:23.000Z,997.4
2022-09-15T00:39:39.000Z,997.5
2022-09-15T00:40:55.000Z,997.5
2022-09-15T00:42:12.000Z,997.4
2022-09-15T00:43:28.000Z,997.5
2022-09-15T00:46:00.000Z,997.5
2022-09-15T00:47:16.000Z,997.5
2022-09-15T00:48:33.000Z,997.5
2022-09-15T00:49:49.000Z,997.6
2022-09-15T00:51:05.000Z,997.6
2022-09-15T00:52:21.000Z,997.7
2022-09-15T00:53:36.000Z,997.6
2022-09-15T00:54:53.000Z,997.6
2022-09-15T00:56:09.000Z,997.6
2022-09-15T00:57:25.000Z,997.7
2022-09-15T00:58:41.000Z,997.6
2022-09-15T00:59:57.000Z,997.6
2022-09-15T01:01:14.000Z,997.6
2022-09-15T01:02:30.000Z,997.6
2022-09-15T01:03:45.000Z,997.6
2022-09-15T01:05:00.000Z,997.6
2022-09-15T01:06:15.000Z,997.6
2022-09-15T01:07:31.000Z,997.6
2022-09-15T01:08:47.000Z,997.6
2022-09-15T01:10:03.000Z,997.6
2022-09-15T01:11:19.000Z,997.6
2022-09-15T01:12:35.000Z,997.6
2022-09-15T01:13:52.000Z,997.6
2022-09-15T01:15:08.000Z,997.6
2022-09-15T01:16:24.000Z,997.6
2022-09-15T01:17:40.000Z,997.6
2022-09-15T01:18:56.000Z,997.6
2022-09-15T01:20:12.000Z,997.6
2022-09-15T01:21:29.000Z,997.6
2022-09-15T01:24:01.000Z,997.6
2022-09-15T01:25:16.000Z,997.6
2022-09-15T01:26:32.000Z,997.6
2022-09-15T01:27:49.000Z,997.6
2022-09-15T01:29:05.000Z,997.7
2022-09-15T01:30:21.000Z,997.6
2022-09-15T01:31:37.000Z,997.6
2022-09-15T01:32:53.000Z,997.6
2022-09-15T01:34:09.000Z,997.5
2022-09-15T01:35:24.000Z,997.5
2022-09-15T01:36:40.000Z,997.6
2022-09-15T01:37:55.000Z,997.6
2022-09-15T01:39:10.000Z,997.6
2022-09-15T01:40:27.000Z,997.6
2022-09-15T01:41:43.000Z,997.6
2022-09-15T01:42:59.000Z,997.5
2022-09-15T01:44:15.000Z,997.6
2022-09-15T01:45:30.000Z,997.5
2022-09-15T01:46:47.000Z,997.6
2022-09-15T01:49:19.000Z,997.5
2022-09-15T01:50:35.000Z,997.5
2022-09-15T01:51:51.000Z,997.6
2022-09-15T01:53:08.000Z,997.6
2022-09-15T01:54:24.000Z,997.6
2022-09-15T01:55:40.000Z,997.5
2022-09-15T01:56:56.000Z,997.5
2022-09-15T01:58:12.000Z,997.6
2022-09-15T01:59:29.000Z,997.6
2022-09-15T02:00:45.000Z,997.5
2022-09-15T02:02:00.000Z,997.5
2022-09-15T02:03:16.000Z,997.6
2022-09-15T02:04:32.000Z,997.5
2022-09-15T02:05:48.000Z,997.6
2022-09-15T02:07:03.000Z,997.5
2022-09-15T02:08:19.000Z,997.5
2022-09-15T02:09:35.000Z,997.6
2022-09-15T02:10:51.000Z,997.5
2022-09-15T02:12:08.000Z,997.6
2022-09-15T02:14:40.000Z,997.5
2022-09-15T02:15:56.000Z,997.6
2022-09-15T02:17:12.000Z,997.6
2022-09-15T02:18:29.000Z,997.6
2022-09-15T02:19:45.000Z,997.5
2022-09-15T02:21:01.000Z,997.6
2022-09-15T02:22:17.000Z,997.5
2022-09-15T02:23:32.000Z,997.5
2022-09-15T02:24:49.000Z,997.5
2022-09-15T02:26:05.000Z,997.6
2022-09-15T02:27:21.000Z,997.5
2022-09-15T02:28:37.000Z,997.5
2022-09-15T02:29:53.000Z,997.6
2022-09-15T02:31:10.000Z,997.6
2022-09-15T02:32:26.000Z,997.5
2022-09-15T02:33:41.000Z,997.6
2022-09-15T02:34:56.000Z,997.5
2022-09-15T02:36:11.000Z,997.5
2022-09-15T02:37:27.000Z,997.6
2022-09-15T02:38:43.000Z,997.6
2022-09-15T02:39:59.000Z,997.6
2022-09-15T02:41:15.000Z,997.6
2022-09-15T02:42:31.000Z,997.6
2022-09-15T02:43:48.000Z,997.6
2022-09-15T02:45:04.000Z,997.7
2022-09-15T02:46:20.000Z,997.7
2022-09-15T02:47:36.000Z,997.7
2022-09-15T02:48:52.000Z,997.7
2022-09-15T02:50:09.000Z,997.7
2022-09-15T02:51:25.000Z,997.7
2022-09-15T02:52:41.000Z,997.7
2022-09-15T02:53:56.000Z,997.7
2022-09-15T02:55:12.000Z,997.7
2022-09-15T02:56:28.000Z,997.7
2022-09-15T02:57:45.000Z,997.7
2022-09-15T02:59:01.000Z,997.7
2022-09-15T03:00:17.000Z,997.7
2022-09-15T03:01:33.000Z,997.7
2022-09-15T03:02:48.000Z,997.7
2022-09-15T03:04:04.000Z,997.6
2022-09-15T03:05:20.000Z,997.7
2022-09-15T03:06:36.000Z,997.7
2022-09-15T03:07:51.000Z,997.7
2022-09-15T03:09:07.000Z,997.7
2022-09-15T03:10:23.000Z,997.6
2022-09-15T03:11:39.000Z,997.6
2022-09-15T03:12:55.000Z,997.6
2022-09-15T03:14:11.000Z,997.6
2022-09-15T03:15:27.000Z,997.6
2022-09-15T03:18:00.000Z,997.6
2022-09-15T03:19:16.000Z,997.6
2022-09-15T03:20:32.000Z,997.6
2022-09-15T03:21:48.000Z,997.6
2022-09-15T03:23:05.000Z,997.6
2022-09-15T03:24:21.000Z,997.6
2022-09-15T03:25:36.000Z,997.5
2022-09-15T03:26:52.000Z,997.5
2022-09-15T03:28:08.000Z,997.5
2022-09-15T03:29:25.000Z,997.5
2022-09-15T03:30:41.000Z,997.6
2022-09-15T03:31:57.000Z,997.5
2022-09-15T03:33:13.000Z,997.6
2022-09-15T03:34:29.000Z,997.6
2022-09-15T03:35:45.000Z,997.5
2022-09-15T03:37:00.000Z,997.6
2022-09-15T03:38:15.000Z,997.5
2022-09-15T03:39:30.000Z,997.6
2022-09-15T03:40:46.000Z,997.5
2022-09-15T03:43:19.000Z,997.6
2022-09-15T03:44:35.000Z,997.6
2022-09-15T03:45:51.000Z,997.6
2022-09-15T03:47:07.000Z,997.5
2022-09-15T03:48:24.000Z,997.6
2022-09-15T03:49:40.000Z,997.6
2022-09-15T03:50:56.000Z,997.5
2022-09-15T03:52:12.000Z,997.5
2022-09-15T03:53:28.000Z,997.6
2022-09-15T03:54:45.000Z,997.6
2022-09-15T03:56:00.000Z,997.5
2022-09-15T03:57:16.000Z,997.6
2022-09-15T03:58:32.000Z,997.6
2022-09-15T03:59:48.000Z,997.6
2022-09-15T04:01:05.000Z,997.6
2022-09-15T04:02:21.000Z,997.6
2022-09-15T04:03:37.000Z,997.6
2022-09-15T04:04:53.000Z,997.6
2022-09-15T04:06:08.000Z,997.6
2022-09-15T04:07:24.000Z,997.6
2022-09-15T04:08:40.000Z,997.6
2022-09-15T04:09:55.000Z,997.6
2022-09-15T04:11:10.000Z,997.5
2022-09-15T04:12:26.000Z,997.5
2022-09-15T04:13:43.000Z,997.6
2022-09-15T04:14:59.000Z,997.6
2022-09-15T04:16:15.000Z,997.6
2022-09-15T04:17:31.000Z,997.7
2022-09-15T04:18:47.000Z,997.7
2022-09-15T04:21:20.000Z,997.7
2022-09-15T04:22:36.000Z,997.7
2022-09-15T04:23:52.000Z,997.7
2022-09-15T04:25:08.000Z,997.7
2022-09-15T04:26:25.000Z,997.7
2022-09-15T04:27:40.000Z,997.7
2022-09-15T04:28:56.000Z,997.7
2022-09-15T04:30:12.000Z,997.6
2022-09-15T04:31:28.000Z,997.7
2022-09-15T04:32:44.000Z,997.7
2022-09-15T04:34:01.000Z,997.7
2022-09-15T04:35:17.000Z,997.7
2022-09-15T04:36:33.000Z,997.7
2022-09-15T04:37:48.000Z,997.7
2022-09-15T04:39:03.000Z,997.7
2022-09-15T04:40:20.000Z,997.8
2022-09-15T04:41:36.000Z,997.8
2022-09-15T04:42:52.000Z,997.8
2022-09-15T04:44:08.000Z,997.7
2022-09-15T04:45:24.000Z,997.8
2022-09-15T04:46:41.000Z,997.7
2022-09-15T04:47:57.000Z,997.7
2022-09-15T04:49:13.000Z,997.8
2022-09-15T04:50:29.000Z,997.8
2022-09-15T04:51:45.000Z,997.7
2022-09-15T04:53:02.000Z,997.7
2022-09-15T04:54:18.000Z,997.7
2022-09-15T04:55:33.000Z,997.8
2022-09-15T04:56:49.000Z,997.8
2022-09-15T04:59:22.000Z,997.8
2022-09-15T05:00:38.000Z,997.8
2022-09-15T05:01:54.000Z,997.8
2022-09-15T05:03:10.000Z,997.8
2022-09-15T05:04:26.000Z,997.8
2022-09-15T05:05:43.000Z,997.8
2022-09-15T05:06:58.000Z,997.8
2022-09-15T05:08:13.000Z,997.8
2022-09-15T05:09:28.000Z,997.9
2022-09-15T05:10:45.000Z,997.9
2022-09-15T05:12:01.000Z,997.8
2022-09-15T05:13:17.000Z,997.8
2022-09-15T05:14:33.000Z,997.9
2022-09-15T05:15:49.000Z,997.8
2022-09-15T05:17:06.000Z,997.9
2022-09-15T05:18:22.000Z,997.8
2022-09-15T05:19:38.000Z,997.8
2022-09-15T05:20:54.000Z,997.9
2022-09-15T05:22:10.000Z,997.8
2022-09-15T05:23:27.000Z,997.9
2022-09-15T05:24:43.000Z,997.9
2022-09-15T05:25:58.000Z,997.9
2022-09-15T05:27:14.000Z,997.9
2022-09-15T05:28:30.000Z,997.9
2022-09-15T05:29:47.000Z,997.8
2022-09-15T05:31:03.000Z,997.8
2022-09-15T05:32:19.000Z,997.8
2022-09-15T05:33:35.000Z,997.8
2022-09-15T05:34:50.000Z,997.9
2022-09-15T05:36:06.000Z,997.9
2022-09-15T05:37:22.000Z,997.9
2022-09-15T05:38:38.000Z,997.9
2022-09-15T05:39:53.000Z,998
2022-09-15T05:41:08.000Z,998
2022-09-15T05:42:25.000Z,998
2022-09-15T05:43:41.000Z,998
2022-09-15T05:44:57.000Z,998
2022-09-15T05:46:13.000Z,998
2022-09-15T05:47:29.000Z,998
2022-09-15T05:48:46.000Z,998
2022-09-15T05:50:02.000Z,998
2022-09-15T05:51:18.000Z,998.1
2022-09-15T05:52:34.000Z,998
2022-09-15T05:53:50.000Z,998
2022-09-15T05:55:07.000Z,998.1
2022-09-15T05:56:23.000Z,998
2022-09-15T05:57:38.000Z,998.1
2022-09-15T05:58:54.000Z,998.1
2022-09-15T06:00:09.000Z,998
2022-09-15T06:02:42.000Z,998.1
2022-09-15T06:03:58.000Z,998.1
2022-09-15T06:05:14.000Z,998
2022-09-15T06:06:30.000Z,998.1
2022-09-15T06:07:46.000Z,998.1
2022-09-15T06:09:01.000Z,998.1
2022-09-15T06:10:16.000Z,998.1
2022-09-15T06:11:31.000Z,998.1
2022-09-15T06:12:47.000Z,998.1
2022-09-15T06:15:20.000Z,998.1
2022-09-15T06:16:36.000Z,998.1
2022-09-15T06:17:52.000Z,998.1
2022-09-15T06:19:08.000Z,998.1
2022-09-15T06:20:25.000Z,998.2
2022-09-15T06:21:41.000Z,998.2
2022-09-15T06:22:57.000Z,998.2
2022-09-15T06:24:13.000Z,998.2
2022-09-15T06:25:29.000Z,998.2
2022-09-15T06:26:46.000Z,998.3
2022-09-15T06:28:01.000Z,998.2
2022-09-15T06:29:17.000Z,998.2
2022-09-15T06:30:33.000Z,998.3
2022-09-15T06:31:49.000Z,998.2
2022-09-15T06:33:06.000Z,998.2
2022-09-15T06:34:22.000Z,998.2
2022-09-15T06:35:38.000Z,998.1
2022-09-15T06:36:54.000Z,998.1
2022-09-15T06:38:09.000Z,998.2
2022-09-15T06:39:25.000Z,998.2
2022-09-15T06:40:41.000Z,998.2
2022-09-15T06:41:57.000Z,998.2
2022-09-15T06:43:12.000Z,998.2
2022-09-15T06:44:27.000Z,998.2
2022-09-15T06:45:44.000Z,998.2
2022-09-15T06:47:00.000Z,998.2
2022-09-15T06:48:16.000Z,998.2
2022-09-15T06:49:32.000Z,998.2
2022-09-15T06:50:48.000Z,998.2
2022-09-15T06:52:05.000Z,998.2
2022-09-15T06:53:21.000Z,998.2
2022-09-15T06:54:37.000Z,998.2
2022-09-15T06:55:53.000Z,998.2
2022-09-15T06:57:09.000Z,998.2
2022-09-15T06:58:26.000Z,998.3
2022-09-15T06:59:42.000Z,998.3
2022-09-15T07:00:57.000Z,998.3
2022-09-15T07:02:13.000Z,998.3
2022-09-15T07:03:29.000Z,998.4
2022-09-15T07:06:02.000Z,998.3
2022-09-15T07:07:18.000Z,998.4
2022-09-15T07:08:34.000Z,998.4
2022-09-15T07:09:50.000Z,998.4
2022-09-15T07:11:05.000Z,998.4
2022-09-15T07:12:21.000Z,998.4
2022-09-15T07:13:36.000Z,998.4
2022-09-15T07:14:51.000Z,998.5
2022-09-15T07:16:07.000Z,998.5
2022-09-15T07:17:24.000Z,998.5
2022-09-15T07:18:40.000Z,998.5
2022-09-15T07:19:56.000Z,998.5
2022-09-15T07:21:12.000Z,998.5
2022-09-15T07:22:28.000Z,998.5
2022-09-15T07:23:45.000Z,998.5
2022-09-15T07:25:01.000Z,998.5
2022-09-15T07:26:17.000Z,998.5
2022-09-15T07:27:33.000Z,998.5
2022-09-15T07:28:49.000Z,998.6
2022-09-15T07:30:05.000Z,998.6
2022-09-15T07:31:21.000Z,998.6
2022-09-15T07:32:37.000Z,998.5
2022-09-15T07:33:53.000Z,998.6
2022-09-15T07:35:09.000Z,998.6
2022-09-15T07:36:26.000Z,998.6
2022-09-15T07:37:42.000Z,998.6
2022-09-15T07:38:58.000Z,998.6
2022-09-15T07:40:13.000Z,998.6
2022-09-15T07:41:28.000Z,998.6
2022-09-15T07:42:44.000Z,998.6
2022-09-15T07:43:59.000Z,998.5
2022-09-15T07:45:15.000Z,998.5
2022-09-15T07:46:31.000Z,998.6
2022-09-15T07:47:47.000Z,998.6
2022-09-15T07:49:04.000Z,998.5
2022-09-15T07:50:20.000Z,998.5
2022-09-15T07:51:36.000Z,998.5
2022-09-15T07:52:52.000Z,998.6
2022-09-15T07:54:08.000Z,998.6
2022-09-15T07:55:24.000Z,998.6
2022-09-15T07:56:41.000Z,998.6
2022-09-15T07:57:57.000Z,998.7
2022-09-15T07:59:13.000Z,998.7
2022-09-15T08:00:28.000Z,998.7
2022-09-15T08:01:44.000Z,998.8
2022-09-15T08:03:01.000Z,998.8
2022-09-15T08:04:17.000Z,998.8
2022-09-15T08:05:33.000Z,998.8
2022-09-15T08:06:49.000Z,998.8
2022-09-15T08:09:22.000Z,998.8
2022-09-15T08:10:37.000Z,998.8
2022-09-15T08:11:53.000Z,998.8
2022-09-15T08:13:08.000Z,998.8
2022-09-15T08:14:24.000Z,998.7
2022-09-15T08:15:40.000Z,998.8
2022-09-15T08:16:56.000Z,998.7
2022-09-15T08:18:12.000Z,998.8
2022-09-15T08:19:28.000Z,998.8
2022-09-15T08:20:44.000Z,998.9
2022-09-15T08:22:01.000Z,998.8
2022-09-15T08:23:17.000Z,998.8
2022-09-15T08:24:33.000Z,998.8
2022-09-15T08:25:49.000Z,998.8
2022-09-15T08:27:05.000Z,998.8
2022-09-15T08:28:22.000Z,998.8
2022-09-15T08:29:38.000Z,998.8
2022-09-15T08:30:53.000Z,998.8
2022-09-15T08:32:09.000Z,998.8
2022-09-15T08:33:25.000Z,998.8
2022-09-15T08:34:42.000Z,998.8
2022-09-15T08:35:58.000Z,998.9
2022-09-15T08:37:14.000Z,998.9
2022-09-15T08:38:30.000Z,998.8
2022-09-15T08:39:45.000Z,998.8
2022-09-15T08:41:02.000Z,998.8
2022-09-15T08:42:17.000Z,998.9
2022-09-15T08:43:32.000Z,998.9
2022-09-15T08:44:48.000Z,998.9
2022-09-15T08:47:21.000Z,998.9
2022-09-15T08:48:37.000Z,999
2022-09-15T08:49:53.000Z,999.1
2022-09-15T08:51:09.000Z,999.1
2022-09-15T08:52:26.000Z,999.1
2022-09-15T08:53:42.000Z,999.1
2022-09-15T08:54:58.000Z,999.1
2022-09-15T08:56:14.000Z,999.1
2022-09-15T08:57:30.000Z,999
2022-09-15T08:58:47.000Z,999.1
2022-09-15T09:00:02.000Z,999.1
2022-09-15T09:01:18.000Z,999.1
2022-09-15T09:02:34.000Z,999.1
2022-09-15T09:03:50.000Z,999.1
2022-09-15T09:05:07.000Z,999.2
2022-09-15T09:06:23.000Z,999.2
2022-09-15T09:07:39.000Z,999.1
2022-09-15T09:08:55.000Z,999.1
2022-09-15T09:10:10.000Z,999.2
2022-09-15T09:11:26.000Z,999.1
2022-09-15T09:12:42.000Z,999.1
2022-09-15T09:13:57.000Z,999.1
2022-09-15T09:15:12.000Z,999.1
2022-09-15T09:16:28.000Z,999.1
2022-09-15T09:17:45.000Z,999.2
2022-09-15T09:19:01.000Z,999.2
2022-09-15T09:20:17.000Z,999.2
2022-09-15T09:21:33.000Z,999.1
2022-09-15T09:22:49.000Z,999.3
2022-09-15T09:24:06.000Z,999.2
2022-09-15T09:25:22.000Z,999.2
2022-09-15T09:26:38.000Z,999.2
2022-09-15T09:27:54.000Z,999.2
2022-09-15T09:29:10.000Z,999.2
2022-09-15T09:30:27.000Z,999.2
2022-09-15T09:31:42.000Z,999.1
2022-09-15T09:32:58.000Z,999.2
2022-09-15T09:34:14.000Z,999.1
2022-09-15T09:35:30.000Z,999.1
2022-09-15T09:38:03.000Z,999.2
2022-09-15T09:39:19.000Z,999.1
2022-09-15T09:40:35.000Z,999
2022-09-15T09:41:50.000Z,999.2
2022-09-15T09:43:06.000Z,999.1
2022-09-15T09:44:21.000Z,999.1
2022-09-15T09:45:36.000Z,999.1
2022-09-15T09:46:52.000Z,999.1
2022-09-15T09:48:08.000Z,999.1
2022-09-15T09:49:25.000Z,999.1
2022-09-15T09:50:41.000Z,999.1
2022-09-15T09:51:57.000Z,999.1
2022-09-15T09:53:13.000Z,999
2022-09-15T09:54:29.000Z,999
2022-09-15T09:55:46.000Z,999.1
2022-09-15T09:57:02.000Z,999
2022-09-15T09:58:18.000Z,998.9
2022-09-15T09:59:34.000Z,999
2022-09-15T10:00:50.000Z,999
2022-09-15T10:03:22.000Z,999
2022-09-15T10:04:38.000Z,999
2022-09-15T10:05:54.000Z,999
2022-09-15T10:07:10.000Z,999
2022-09-15T10:08:27.000Z,999
2022-09-15T10:09:43.000Z,999
2022-09-15T10:10:59.000Z,999
2022-09-15T10:12:14.000Z,999.1
2022-09-15T10:13:29.000Z,999
2022-09-15T10:14:45.000Z,999
2022-09-15T10:16:00.000Z,999
2022-09-15T10:17:16.000Z,999
2022-09-15T10:18:32.000Z,999
2022-09-15T10:19:48.000Z,998.9
2022-09-15T10:21:05.000Z,998.9
2022-09-15T10:22:21.000Z,998.9
2022-09-15T10:23:37.000Z,998.9
2022-09-15T10:24:53.000Z,998.8
2022-09-15T10:26:09.000Z,998.9
2022-09-15T10:27:26.000Z,998.9
2022-09-15T10:28:42.000Z,998.9
2022-09-15T10:29:58.000Z,999
2022-09-15T10:31:14.000Z,998.9
2022-09-15T10:32:29.000Z,998.8
2022-09-15T10:33:46.000Z,998.9
2022-09-15T10:35:02.000Z,998.8
2022-09-15T10:36:18.000Z,998.8
2022-09-15T10:37:34.000Z,998.8
2022-09-15T10:38:50.000Z,998.8
2022-09-15T10:41:23.000Z,998.9
2022-09-15T10:42:39.000Z,998.9
2022-09-15T10:43:54.000Z,998.8
2022-09-15T10:45:09.000Z,998.8
2022-09-15T10:46:25.000Z,998.8
2022-09-15T10:47:40.000Z,998.8
2022-09-15T10:48:56.000Z,998.8
2022-09-15T10:50:12.000Z,998.8
2022-09-15T10:51:28.000Z,998.8
2022-09-15T10:52:45.000Z,998.7
2022-09-15T10:54:01.000Z,998.8
2022-09-15T10:55:17.000Z,998.8
2022-09-15T10:56:33.000Z,998.8
2022-09-15T10:57:49.000Z,998.8
2022-09-15T10:59:06.000Z,998.8
2022-09-15T11:00:22.000Z,998.8
2022-09-15T11:02:54.000Z,998.7
2022-09-15T11:04:09.000Z,998.7
2022-09-15T11:05:26.000Z,998.8
2022-09-15T11:06:42.000Z,998.7
2022-09-15T11:07:58.000Z,998.8
2022-09-15T11:09:14.000Z,998.7
2022-09-15T11:10:30.000Z,998.8
2022-09-15T11:11:47.000Z,998.7
2022-09-15T11:13:03.000Z,998.8
2022-09-15T11:14:18.000Z,998.8
2022-09-15T11:15:33.000Z,998.8
2022-09-15T11:16:49.000Z,998.8
2022-09-15T11:18:06.000Z,998.8
2022-09-15T11:19:22.000Z,998.8
2022-09-15T11:20:38.000Z,998.8
2022-09-15T11:21:54.000Z,998.8
2022-09-15T11:23:10.000Z,998.8
2022-09-15T11:24:27.000Z,998.9
2022-09-15T11:25:43.000Z,998.9
2022-09-15T11:26:59.000Z,998.8
2022-09-15T11:28:15.000Z,998.8
2022-09-15T11:29:31.000Z,998.8
2022-09-15T11:30:47.000Z,998.9
2022-09-15T11:32:03.000Z,998.9
2022-09-15T11:33:19.000Z,998.9
2022-09-15T11:34:35.000Z,998.8
2022-09-15T11:35:51.000Z,998.9
2022-09-15T11:37:07.000Z,999
2022-09-15T11:38:24.000Z,998.9
2022-09-15T11:39:40.000Z,999
2022-09-15T11:40:55.000Z,999
2022-09-15T11:42:10.000Z,999.1
2022-09-15T11:44:42.000Z,999.1
2022-09-15T11:45:57.000Z,999
2022-09-15T11:47:12.000Z,999
2022-09-15T11:48:28.000Z,999.2
2022-09-15T11:49:45.000Z,999.1
2022-09-15T11:51:00.000Z,999.1
2022-09-15T11:52:15.000Z,999.1
2022-09-15T11:53:31.000Z,999.1
2022-09-15T11:54:47.000Z,999
2022-09-15T11:56:04.000Z,999.1
2022-09-15T11:57:20.000Z,999.1
2022-09-15T11:58:36.000Z,999.1
2022-09-15T11:59:52.000Z,999.1
2022-09-15T12:01:08.000Z,999
2022-09-15T12:02:25.000Z,999
2022-09-15T12:03:41.000Z,999
2022-09-15T12:04:57.000Z,999
2022-09-15T12:06:13.000Z,999
2022-09-15T12:07:29.000Z,999
2022-09-15T12:08:45.000Z,999
2022-09-15T12:10:01.000Z,999.1
2022-09-15T12:11:17.000Z,999.1
2022-09-15T12:12:33.000Z,999
2022-09-15T12:13:49.000Z,999.1
2022-09-15T12:15:06.000Z,999
2022-09-15T12:16:22.000Z,999
2022-09-15T12:17:37.000Z,999.1
2022-09-15T12:18:52.000Z,999
2022-09-15T12:20:07.000Z,999
2022-09-15T12:21:23.000Z,999
2022-09-15T12:22:39.000Z,999
2022-09-15T12:23:55.000Z,998.9
2022-09-15T12:25:11.000Z,999
2022-09-15T12:26:27.000Z,999
2022-09-15T12:27:44.000Z,999
2022-09-15T12:29:00.000Z,999.1
2022-09-15T12:30:16.000Z,999
2022-09-15T12:31:32.000Z,999.1
2022-09-15T12:32:48.000Z,999.1
2022-09-15T12:34:05.000Z,999
2022-09-15T12:35:21.000Z,999
2022-09-15T12:36:37.000Z,999
2022-09-15T12:37:52.000Z,999
2022-09-15T12:39:08.000Z,999
2022-09-15T12:40:25.000Z,999.1
2022-09-15T12:41:41.000Z,999
2022-09-15T12:42:57.000Z,999.1
2022-09-15T12:44:13.000Z,999.1
2022-09-15T12:45:29.000Z,999
2022-09-15T12:48:01.000Z,999
2022-09-15T12:49:16.000Z,999
2022-09-15T12:50:31.000Z,998.9
2022-09-15T12:51:47.000Z,999
2022-09-15T12:53:04.000Z,999
2022-09-15T12:54:20.000Z,998.9
2022-09-15T12:55:36.000Z,998.9
2022-09-15T12:56:52.000Z,998.9
2022-09-15T12:58:08.000Z,998.9
2022-09-15T12:59:25.000Z,998.9
2022-09-15T13:00:41.000Z,999
2022-09-15T13:01:57.000Z,999
2022-09-15T13:03:13.000Z,999
2022-09-15T13:04:29.000Z,998.9
2022-09-15T13:05:46.000Z,998.9
2022-09-15T13:07:01.000Z,998.9
2022-09-15T13:08:17.000Z,999
2022-09-15T13:09:33.000Z,999
2022-09-15T13:10:49.000Z,999
2022-09-15T13:12:06.000Z,999
2022-09-15T13:13:22.000Z,999
2022-09-15T13:14:38.000Z,998.9
2022-09-15T13:15:53.000Z,998.9
2022-09-15T13:17:08.000Z,999
2022-09-15T13:18:24.000Z,998.9
2022-09-15T13:19:39.000Z,998.9
2022-09-15T13:20:55.000Z,999
2022-09-15T13:22:11.000Z,998.9
2022-09-15T13:23:27.000Z,998.9
2022-09-15T13:24:44.000Z,999
2022-09-15T13:26:00.000Z,998.9
2022-09-15T13:27:16.000Z,999
2022-09-15T13:28:32.000Z,999
2022-09-15T13:29:48.000Z,998.9
2022-09-15T13:31:05.000Z,999
2022-09-15T13:32:21.000Z,999
2022-09-15T13:33:37.000Z,998.9
2022-09-15T13:34:53.000Z,998.9
2022-09-15T13:36:08.000Z,998.9
2022-09-15T13:37:25.000Z,999
2022-09-15T13:38:41.000Z,998.9
2022-09-15T13:39:57.000Z,998.9
2022-09-15T13:41:13.000Z,998.9
2022-09-15T13:42:29.000Z,998.9
2022-09-15T13:43:45.000Z,998.9
2022-09-15T13:45:01.000Z,998.9
2022-09-15T13:46:16.000Z,998.9
2022-09-15T13:47:32.000Z,998.9
2022-09-15T13:48:48.000Z,999
2022-09-15T13:51:21.000Z,998.9
2022-09-15T13:52:37.000Z,998.9
2022-09-15T13:53:53.000Z,998.9
2022-09-15T13:55:09.000Z,998.9
2022-09-15T13:56:25.000Z,998.9
2022-09-15T13:57:42.000Z,998.9
2022-09-15T13:58:58.000Z,998.9
2022-09-15T14:00:14.000Z,998.9
2022-09-15T14:01:30.000Z,998.8
2022-09-15T14:02:45.000Z,998.9
2022-09-15T14:04:02.000Z,998.9
2022-09-15T14:05:18.000Z,998.8
2022-09-15T14:06:34.000Z,998.8
2022-09-15T14:07:50.000Z,998.9
2022-09-15T14:09:06.000Z,998.9
2022-09-15T14:10:23.000Z,998.9
2022-09-15T14:11:39.000Z,998.9
2022-09-15T14:12:54.000Z,998.8
2022-09-15T14:14:09.000Z,998.9
2022-09-15T14:15:25.000Z,998.9
2022-09-15T14:16:40.000Z,998.9
2022-09-15T14:17:55.000Z,998.9
2022-09-15T14:19:10.000Z,998.9
2022-09-15T14:20:26.000Z,998.9
2022-09-15T14:21:43.000Z,998.9
2022-09-15T14:22:59.000Z,998.9
2022-09-15T14:24:15.000Z,999
2022-09-15T14:25:31.000Z,998.9
2022-09-15T14:26:47.000Z,999
2022-09-15T14:29:20.000Z,999
2022-09-15T14:30:35.000Z,998.9
2022-09-15T14:31:51.000Z,998.9
2022-09-15T14:33:07.000Z,999
2022-09-15T14:34:23.000Z,999
2022-09-15T14:35:40.000Z,998.9
2022-09-15T14:36:56.000Z,998.9
2022-09-15T14:38:12.000Z,998.9
2022-09-15T14:39:28.000Z,998.9
2022-09-15T14:40:44.000Z,998.9
2022-09-15T14:42:01.000Z,998.9
2022-09-15T14:43:17.000Z,998.9
2022-09-15T14:44:33.000Z,998.9
2022-09-15T14:45:49.000Z,998.8
2022-09-15T14:47:04.000Z,998.9
2022-09-15T14:48:20.000Z,998.9
2022-09-15T14:49:36.000Z,998.9
2022-09-15T14:50:52.000Z,998.9
2022-09-15T14:52:08.000Z,998.9
2022-09-15T14:53:24.000Z,998.9
2022-09-15T14:54:41.000Z,998.9
2022-09-15T14:55:57.000Z,998.9
2022-09-15T14:57:13.000Z,998.9
2022-09-15T14:58:29.000Z,998.9
2022-09-15T14:59:45.000Z,998.9
2022-09-15T15:01:02.000Z,998.9
2022-09-15T15:02:18.000Z,998.9
2022-09-15T15:03:34.000Z,998.8
2022-09-15T15:04:49.000Z,998.9
2022-09-15T15:06:05.000Z,998.9
2022-09-15T15:07:22.000Z,998.8
2022-09-15T15:08:38.000Z,998.8
2022-09-15T15:09:54.000Z,998.9
2022-09-15T15:11:10.000Z,998.8
2022-09-15T15:12:26.000Z,998.8
2022-09-15T15:13:42.000Z,998.9
2022-09-15T15:14:57.000Z,998.8
2022-09-15T15:16:12.000Z,998.9
2022-09-15T15:17:27.000Z,998.9
2022-09-15T15:18:43.000Z,998.9
2022-09-15T15:20:00.000Z,998.8
2022-09-15T15:21:16.000Z,998.9
2022-09-15T15:22:32.000Z,998.8
2022-09-15T15:23:48.000Z,998.8
2022-09-15T15:25:04.000Z,998.8
2022-09-15T15:26:21.000Z,998.8
2022-09-15T15:27:37.000Z,998.7
2022-09-15T15:28:53.000Z,998.8
2022-09-15T15:30:09.000Z,998.9
2022-09-15T15:32:42.000Z,998.9
2022-09-15T15:33:57.000Z,998.9
2022-09-15T15:35:13.000Z,998.9
2022-09-15T15:36:29.000Z,999
2022-09-15T15:37:45.000Z,999.1
2022-09-15T15:39:02.000Z,999
2022-09-15T15:40:18.000Z,999
2022-09-15T15:41:34.000Z,999
2022-09-15T15:42:50.000Z,999
2022-09-15T15:44:05.000Z,999
2022-09-15T15:45:21.000Z,999
2022-09-15T15:46:37.000Z,999
2022-09-15T15:47:52.000Z,999.1
2022-09-15T15:49:07.000Z,999
2022-09-15T15:50:23.000Z,999
2022-09-15T15:51:40.000Z,999
2022-09-15T15:52:56.000Z,999
2022-09-15T15:54:12.000Z,999
2022-09-15T15:55:28.000Z,999.1
2022-09-15T15:56:44.000Z,999
2022-09-15T15:58:00.000Z,999
2022-09-15T15:59:17.000Z,999
2022-09-15T16:00:33.000Z,999
2022-09-15T16:01:49.000Z,999
2022-09-15T16:03:05.000Z,999.1
2022-09-15T16:04:21.000Z,999.1
2022-09-15T16:05:37.000Z,999
2022-09-15T16:06:53.000Z,999
2022-09-15T16:08:09.000Z,999.1
2022-09-15T16:10:41.000Z,998.9
2022-09-15T16:11:58.000Z,999
2022-09-15T16:13:14.000Z,999.1
2022-09-15T16:14:30.000Z,999.1
2022-09-15T16:15:45.000Z,999
2022-09-15T16:17:00.000Z,999.1
2022-09-15T16:18:16.000Z,999
2022-09-15T16:19:31.000Z,999
2022-09-15T16:20:47.000Z,999
2022-09-15T16:22:03.000Z,999
2022-09-15T16:23:19.000Z,999.1
2022-09-15T16:24:36.000Z,999
2022-09-15T16:25:52.000Z,999
2022-09-15T16:27:08.000Z,999
2022-09-15T16:28:24.000Z,999.1
2022-09-15T16:29:40.000Z,999
2022-09-15T16:30:57.000Z,999
2022-09-15T16:32:13.000Z,999
2022-09-15T16:33:29.000Z,999.1
2022-09-15T16:36:01.000Z,999.1
2022-09-15T16:37:17.000Z,999.1
2022-09-15T16:38:33.000Z,999
2022-09-15T16:39:49.000Z,999.1
2022-09-15T16:41:05.000Z,999.1
2022-09-15T16:42:21.000Z,999.1
2022-09-15T16:43:38.000Z,999.1
2022-09-15T16:44:54.000Z,999.2
2022-09-15T16:46:09.000Z,999.2
2022-09-15T16:47:24.000Z,999.1
2022-09-15T16:48:40.000Z,999.2
2022-09-15T16:49:56.000Z,999.3
2022-09-15T16:51:11.000Z,999.2
2022-09-15T16:52:27.000Z,999.1
2022-09-15T16:53:43.000Z,999.2
2022-09-15T16:54:59.000Z,999.3
2022-09-15T16:56:16.000Z,999.2
2022-09-15T16:57:32.000Z,999.2
2022-09-15T16:58:48.000Z,999.3
2022-09-15T17:00:04.000Z,999.3